KLLQ

Monticello Municipal / Ellis Field Airport

Monticello, Arkansas, USA
METAR KLLQ 170653Z AUTO 26004KT 8SM CLR 05/04 A3025 RMK AO2 SLP242 T00500039
Observed Flight Rules
Dec-17 @ 06:53 UTC (an hour ago) Visual Flight Rules
Wind Visibility Clouds
260° at 4 knots 8 miles
  • Clear skies
Temperatures Readings
Current 5°C / 41°F
Dewpoint 4°C / 39°F
Humidity 93%
Altimeter 30.25" Hg
Pressure 1024.2 hPa
Elevation 83
METAR KLLQ 170653Z AUTO 26004KT 8SM CLR 05/04 A3025 RMK AO2 SLP242 T00500039
Observed Flight Rules
Dec-17 @ 06:53 UTC
(an hour ago)
VFR
Wind Visibility
260° at 4 knots 8 miles
Clouds
  • Clear skies
Temperature Dewpoint
5°C / 41°F 4°C / 39°F
Humidity Altimeter Pressure
93% 30.25" Hg 1024.2 hPa